createdAt,value
2022-12-11T00:00:10.294Z,18.93
2022-12-11T00:03:15.820Z,17.43
2022-12-11T00:06:21.102Z,18.87
2022-12-11T00:09:23.243Z,17.83
2022-12-11T00:12:25.383Z,19.63
2022-12-11T00:15:28.177Z,19.17
2022-12-11T00:18:30.332Z,18.77
2022-12-11T00:21:32.841Z,18.27
2022-12-11T00:24:34.902Z,17.83
2022-12-11T00:27:36.981Z,17.80
2022-12-11T00:30:41.259Z,19.10
2022-12-11T00:33:46.332Z,18.43
2022-12-11T00:36:48.348Z,18.50
2022-12-11T00:39:50.335Z,17.63
2022-12-11T00:42:52.291Z,17.37
2022-12-11T00:45:54.343Z,17.77
2022-12-11T00:48:56.485Z,18.27
2022-12-11T00:51:58.542Z,19.00
2022-12-11T00:55:00.542Z,19.10
2022-12-11T00:58:02.496Z,19.47
2022-12-11T01:01:13.938Z,20.03
2022-12-11T01:04:15.918Z,18.90
2022-12-11T01:07:19.072Z,18.57
2022-12-11T01:10:24.253Z,19.40
2022-12-11T01:13:26.340Z,18.57
2022-12-11T01:16:28.375Z,19.30
2022-12-11T01:19:31.649Z,18.90
2022-12-11T01:22:33.668Z,18.27
2022-12-11T01:25:38.362Z,16.97
2022-12-11T01:28:41.581Z,18.83
2022-12-11T01:31:43.568Z,16.40
2022-12-11T01:34:45.548Z,18.93
2022-12-11T01:37:47.855Z,17.40
2022-12-11T01:40:51.450Z,18.27
2022-12-11T01:43:59.300Z,19.23
2022-12-11T01:47:01.335Z,17.53
2022-12-11T01:50:03.568Z,16.03
2022-12-11T01:53:09.077Z,17.63
2022-12-11T01:56:11.435Z,15.40
2022-12-11T01:59:18.054Z,15.90
2022-12-11T02:02:24.741Z,15.77
2022-12-11T02:05:26.838Z,15.20
2022-12-11T02:08:29.906Z,15.90
2022-12-11T02:11:42.844Z,15.07
2022-12-11T02:15:05.668Z,14.20
2022-12-11T02:18:25.611Z,13.90
2022-12-11T02:21:44.105Z,13.17
2022-12-11T02:25:19.212Z,14.00
2022-12-11T02:28:31.427Z,13.63
2022-12-11T02:31:49.318Z,11.77
2022-12-11T02:35:20.775Z,12.37
2022-12-11T02:38:30.336Z,11.97
2022-12-11T02:41:34.024Z,11.37
2022-12-11T02:44:37.257Z,10.87
2022-12-11T02:47:40.529Z,11.20
2022-12-11T02:50:54.315Z,9.73
2022-12-11T02:54:04.395Z,9.73
2022-12-11T02:57:17.077Z,8.67
2022-12-11T03:00:19.656Z,9.07
2022-12-11T03:03:22.280Z,7.73
2022-12-11T03:06:29.850Z,7.97
2022-12-11T03:09:32.623Z,7.50
2022-12-11T03:12:41.136Z,6.90
2022-12-11T03:16:12.489Z,6.27
2022-12-11T03:19:45.816Z,7.03
2022-12-11T03:23:02.929Z,6.80
2022-12-11T03:26:09.057Z,6.87
2022-12-11T03:29:31.989Z,6.50
2022-12-11T03:32:45.106Z,5.57
2022-12-11T03:35:56.275Z,5.13
2022-12-11T03:39:02.311Z,5.70
2022-12-11T03:42:09.050Z,5.03
2022-12-11T03:45:13.814Z,4.80
2022-12-11T03:48:18.973Z,4.50
2022-12-11T03:51:24.469Z,4.67
2022-12-11T03:54:27.774Z,5.80
2022-12-11T03:57:33.928Z,6.63
2022-12-11T04:00:36.404Z,6.83
2022-12-11T04:03:39.251Z,7.10
2022-12-11T04:06:41.269Z,7.67
2022-12-11T04:09:43.286Z,7.43
2022-12-11T04:12:45.282Z,7.10
2022-12-11T04:15:47.325Z,7.70
2022-12-11T04:19:08.040Z,8.83
2022-12-11T04:22:27.083Z,8.87
2022-12-11T04:25:29.138Z,7.97
2022-12-11T04:28:31.176Z,7.27
2022-12-11T04:31:33.290Z,7.53
2022-12-11T04:34:35.256Z,7.77
2022-12-11T04:37:37.965Z,8.10
2022-12-11T04:40:40.039Z,7.43
2022-12-11T04:43:45.447Z,7.50
2022-12-11T04:46:47.492Z,7.70
2022-12-11T04:49:49.602Z,7.80
2022-12-11T04:52:55.201Z,6.37
2022-12-11T04:55:57.621Z,6.97
2022-12-11T04:58:59.613Z,7.30
2022-12-11T05:02:01.740Z,6.87
2022-12-11T05:05:06.155Z,7.50
2022-12-11T05:08:08.657Z,7.20
2022-12-11T05:11:13.868Z,7.13
2022-12-11T05:14:15.986Z,6.97
2022-12-11T05:17:18.010Z,6.27
2022-12-11T05:20:19.930Z,6.73
2022-12-11T05:23:21.921Z,7.57
2022-12-11T05:26:24.008Z,7.40
2022-12-11T05:29:25.948Z,7.37
2022-12-11T05:32:28.649Z,7.27
2022-12-11T05:35:30.651Z,8.00
2022-12-11T05:38:32.763Z,8.10
2022-12-11T05:41:34.691Z,8.17
2022-12-11T05:44:36.709Z,8.23
2022-12-11T05:47:38.714Z,8.20
2022-12-11T05:50:40.675Z,8.70
2022-12-11T05:53:44.282Z,8.77
2022-12-11T05:56:46.315Z,7.90
2022-12-11T05:59:48.284Z,9.43
2022-12-11T06:02:50.354Z,9.17
2022-12-11T06:05:52.543Z,9.07
2022-12-11T06:08:56.801Z,9.03
2022-12-11T06:11:58.847Z,8.83
2022-12-11T06:15:00.804Z,9.50
2022-12-11T06:18:02.892Z,10.10
2022-12-11T06:21:27.783Z,10.47
2022-12-11T06:24:29.803Z,10.73
2022-12-11T06:27:31.792Z,11.00
2022-12-11T06:30:37.548Z,11.77
2022-12-11T06:33:41.454Z,11.00
2022-12-11T06:36:43.445Z,11.63
2022-12-11T06:39:45.573Z,10.70
2022-12-11T06:42:47.571Z,11.43
2022-12-11T06:45:49.611Z,11.20
2022-12-11T06:48:51.545Z,11.63
2022-12-11T06:51:53.668Z,13.03
2022-12-11T06:54:56.001Z,11.10
2022-12-11T06:57:58.013Z,11.07
2022-12-11T07:01:00.106Z,11.57
2022-12-11T07:04:02.243Z,10.27
2022-12-11T07:07:04.329Z,10.33
2022-12-11T07:10:08.604Z,9.73
2022-12-11T07:13:11.003Z,11.00
2022-12-11T07:16:14.960Z,11.40
2022-12-11T07:19:17.094Z,11.50
2022-12-11T07:22:19.136Z,10.63
2022-12-11T07:25:21.105Z,11.73
2022-12-11T07:28:23.291Z,11.63
2022-12-11T07:31:27.140Z,11.10
2022-12-11T07:34:29.316Z,12.10
2022-12-11T07:37:31.329Z,11.60
2022-12-11T07:40:34.067Z,10.67
2022-12-11T07:43:37.859Z,12.20
2022-12-11T07:46:40.642Z,11.50
2022-12-11T07:49:42.684Z,10.80
2022-12-11T07:52:44.773Z,9.87
2022-12-11T07:55:46.779Z,9.63
2022-12-11T07:58:48.873Z,10.23
2022-12-11T08:01:50.848Z,10.33
2022-12-11T08:04:52.833Z,11.20
2022-12-11T08:07:54.838Z,11.30
2022-12-11T08:10:56.961Z,10.87
2022-12-11T08:13:59.892Z,10.97
2022-12-11T08:17:02.690Z,11.23
2022-12-11T08:20:05.606Z,10.93
2022-12-11T08:23:07.591Z,10.10
2022-12-11T08:26:17.055Z,10.30
2022-12-11T08:29:18.937Z,10.80
2022-12-11T08:32:20.878Z,10.67
2022-12-11T08:35:25.834Z,10.13
2022-12-11T08:38:27.810Z,10.10
2022-12-11T08:41:30.937Z,10.23
2022-12-11T08:44:32.977Z,10.27
2022-12-11T08:47:35.013Z,10.67
2022-12-11T08:50:37.790Z,11.90
2022-12-11T08:53:40.225Z,11.13
2022-12-11T08:56:42.170Z,10.20
2022-12-11T08:59:44.151Z,9.30
2022-12-11T09:02:46.274Z,9.57
2022-12-11T09:05:48.369Z,8.83
2022-12-11T09:08:53.168Z,8.00
2022-12-11T09:11:55.765Z,7.20
2022-12-11T09:14:57.705Z,8.67
2022-12-11T09:17:59.681Z,8.40
2022-12-11T09:21:10.230Z,7.40
2022-12-11T09:24:13.685Z,7.50
2022-12-11T09:27:15.715Z,8.37
2022-12-11T09:30:17.789Z,8.13
2022-12-11T09:33:19.807Z,8.77
2022-12-11T09:36:22.444Z,7.70
2022-12-11T09:39:24.541Z,8.70
2022-12-11T09:42:51.325Z,7.73
2022-12-11T09:45:55.342Z,8.17
2022-12-11T09:48:57.810Z,7.80
2022-12-11T09:51:59.743Z,8.87
2022-12-11T09:55:10.209Z,8.63
2022-12-11T09:58:19.129Z,7.93
2022-12-11T10:01:39.162Z,8.63
2022-12-11T10:04:43.730Z,8.40
2022-12-11T10:07:45.691Z,9.10
2022-12-11T10:11:06.123Z,9.13
2022-12-11T10:14:17.509Z,8.60
2022-12-11T10:17:23.597Z,9.50
2022-12-11T10:20:39.577Z,9.17
2022-12-11T10:23:51.415Z,9.27
2022-12-11T10:26:58.517Z,10.00
2022-12-11T10:30:03.005Z,10.00
2022-12-11T10:33:07.865Z,10.33
2022-12-11T10:36:10.971Z,10.00
2022-12-11T10:39:19.010Z,10.43
2022-12-11T10:42:22.988Z,10.43
2022-12-11T10:45:25.169Z,11.53
2022-12-11T10:48:27.274Z,10.07
2022-12-11T10:51:32.039Z,10.07
2022-12-11T10:54:37.034Z,9.87
2022-12-11T10:57:39.765Z,9.50
2022-12-11T11:00:42.635Z,9.90
2022-12-11T11:04:07.502Z,10.07
2022-12-11T11:07:34.670Z,11.40
2022-12-11T11:10:36.847Z,10.10
2022-12-11T11:13:39.024Z,9.47
2022-12-11T11:16:43.274Z,10.47
2022-12-11T11:19:48.450Z,9.30
2022-12-11T11:23:00.267Z,9.63
2022-12-11T11:26:08.474Z,8.77
2022-12-11T11:29:29.391Z,9.33
2022-12-11T11:32:40.048Z,9.80
2022-12-11T11:35:56.098Z,9.13
2022-12-11T11:39:20.308Z,8.70
2022-12-11T11:42:43.933Z,7.60
2022-12-11T11:45:57.865Z,9.27
2022-12-11T11:49:20.556Z,7.70
2022-12-11T11:52:30.947Z,8.10
2022-12-11T11:55:52.262Z,7.17
2022-12-11T11:59:06.313Z,6.77
2022-12-11T12:02:16.322Z,6.43
2022-12-11T12:05:25.834Z,7.53
2022-12-11T12:08:33.571Z,7.33
2022-12-11T12:11:58.591Z,8.50
2022-12-11T12:15:20.256Z,7.50
2022-12-11T12:18:50.232Z,8.40
2022-12-11T12:21:53.227Z,8.10
2022-12-11T12:25:14.864Z,8.20
2022-12-11T12:28:28.605Z,8.43
2022-12-11T12:31:56.691Z,9.93
2022-12-11T12:35:11.993Z,9.77
2022-12-11T12:38:50.367Z,9.83
2022-12-11T12:42:07.528Z,9.67
2022-12-11T12:45:13.813Z,9.10
2022-12-11T12:48:16.406Z,9.73
2022-12-11T12:51:19.163Z,9.13
2022-12-11T12:54:22.308Z,10.00
2022-12-11T12:57:24.738Z,10.97
2022-12-11T13:00:36.573Z,10.17
2022-12-11T13:04:02.267Z,11.23
2022-12-11T13:07:20.385Z,10.33
2022-12-11T13:10:26.570Z,11.10
2022-12-11T13:13:40.959Z,9.87
2022-12-11T13:16:48.203Z,10.30
2022-12-11T13:19:57.714Z,11.33
2022-12-11T13:23:29.352Z,9.83
2022-12-11T13:26:33.184Z,9.83
2022-12-11T13:29:36.958Z,10.40
2022-12-11T13:32:39.416Z,10.07
2022-12-11T13:35:41.881Z,9.97
2022-12-11T13:38:52.092Z,10.43
2022-12-11T13:42:02.159Z,9.80
2022-12-11T13:45:05.979Z,9.63
2022-12-11T13:48:19.973Z,9.80
2022-12-11T13:51:24.890Z,10.03
2022-12-11T13:54:29.134Z,10.53
2022-12-11T13:57:31.174Z,10.23
2022-12-11T14:00:33.608Z,10.60
2022-12-11T14:03:36.330Z,10.00
2022-12-11T14:06:40.155Z,10.90
2022-12-11T14:09:46.201Z,9.77
2022-12-11T14:12:54.104Z,10.43
2022-12-11T14:15:56.262Z,10.67
2022-12-11T14:19:10.372Z,11.57
2022-12-11T14:22:24.699Z,11.30
2022-12-11T14:25:28.452Z,10.13
2022-12-11T14:28:38.218Z,11.93
2022-12-11T14:31:44.607Z,11.87
2022-12-11T14:34:49.250Z,10.63
2022-12-11T14:37:53.065Z,12.30
2022-12-11T14:41:03.560Z,11.97
2022-12-11T14:44:12.823Z,11.30
2022-12-11T14:47:21.167Z,11.03
2022-12-11T14:50:28.865Z,9.63
2022-12-11T14:53:38.106Z,9.03
2022-12-11T14:56:40.266Z,9.20
2022-12-11T14:59:47.261Z,8.47
2022-12-11T15:03:01.564Z,8.70
2022-12-11T15:06:23.799Z,9.07
2022-12-11T15:09:37.722Z,8.30
2022-12-11T15:12:45.401Z,7.10
2022-12-11T15:15:48.037Z,6.80
2022-12-11T15:18:52.505Z,6.90
2022-12-11T15:21:55.587Z,7.13
2022-12-11T15:25:00.436Z,7.07
2022-12-11T15:28:02.489Z,6.83
2022-12-11T15:31:06.058Z,6.53
2022-12-11T15:34:23.234Z,7.10
2022-12-11T15:37:36.774Z,6.47
2022-12-11T15:40:39.711Z,6.20
2022-12-11T15:43:42.630Z,6.33
2022-12-11T15:46:45.048Z,6.37
2022-12-11T15:49:47.574Z,5.90
2022-12-11T15:52:51.810Z,5.90
2022-12-11T15:55:54.451Z,6.00
2022-12-11T15:59:04.825Z,6.20
2022-12-11T16:02:13.390Z,6.03
2022-12-11T16:05:15.841Z,6.03
2022-12-11T16:08:20.437Z,5.90
2022-12-11T16:11:22.478Z,5.53
2022-12-11T16:14:24.592Z,5.73
2022-12-11T16:17:27.074Z,5.40
2022-12-11T16:20:31.130Z,5.17
2022-12-11T16:23:33.331Z,5.83
2022-12-11T16:26:35.700Z,6.03
2022-12-11T16:29:40.115Z,5.63
2022-12-11T16:32:43.095Z,5.43
2022-12-11T16:35:50.358Z,6.13
2022-12-11T16:38:54.220Z,6.37
2022-12-11T16:41:57.054Z,6.40
2022-12-11T16:45:06.763Z,6.73
2022-12-11T16:48:09.700Z,7.80
2022-12-11T16:51:11.974Z,7.90
2022-12-11T16:54:14.105Z,7.73
2022-12-11T16:57:16.802Z,8.60
2022-12-11T17:00:19.071Z,8.77
2022-12-11T17:03:21.117Z,9.07
2022-12-11T17:06:23.624Z,8.80
2022-12-11T17:09:26.337Z,10.47
2022-12-11T17:12:32.334Z,10.03
2022-12-11T17:15:40.167Z,9.30
2022-12-11T17:18:43.601Z,10.43
2022-12-11T17:21:51.649Z,9.57
2022-12-11T17:24:54.405Z,9.70
2022-12-11T17:27:57.836Z,10.83
2022-12-11T17:31:05.498Z,10.30
2022-12-11T17:34:08.731Z,11.77
2022-12-11T17:37:11.567Z,11.83
2022-12-11T17:40:19.302Z,11.53
2022-12-11T17:43:22.368Z,11.93
2022-12-11T17:46:25.082Z,11.77
2022-12-11T17:49:28.241Z,11.33
2022-12-11T17:52:35.008Z,11.07
2022-12-11T17:55:44.308Z,11.27
2022-12-11T17:58:46.911Z,11.27
2022-12-11T18:01:49.627Z,10.00
2022-12-11T18:04:52.647Z,10.50
2022-12-11T18:07:57.878Z,10.77
2022-12-11T18:11:16.915Z,10.57
2022-12-11T18:14:19.691Z,11.30
2022-12-11T18:17:22.121Z,12.30
2022-12-11T18:20:25.403Z,10.43
2022-12-11T18:23:28.672Z,10.23
2022-12-11T18:26:35.231Z,12.30
2022-12-11T18:29:37.874Z,10.70
2022-12-11T18:32:46.935Z,10.63
2022-12-11T18:35:51.963Z,10.50
2022-12-11T18:38:54.455Z,12.10
2022-12-11T18:42:30.649Z,10.20
2022-12-11T18:45:20.381Z,10.10
2022-12-11T18:48:23.901Z,11.30
2022-12-11T18:51:27.231Z,10.30
2022-12-11T18:54:30.160Z,11.07
2022-12-11T18:57:33.195Z,10.33
2022-12-11T19:00:39.868Z,11.00
2022-12-11T19:03:43.164Z,10.07
2022-12-11T19:06:46.604Z,10.50
2022-12-11T19:09:49.760Z,10.30
2022-12-11T19:12:52.810Z,10.23
2022-12-11T19:15:57.255Z,10.27
2022-12-11T19:19:01.425Z,9.97
2022-12-11T19:22:06.200Z,9.93
2022-12-11T19:25:09.624Z,9.63
2022-12-11T19:28:13.541Z,9.17
2022-12-11T19:31:19.656Z,9.20
2022-12-11T19:34:26.875Z,8.90
2022-12-11T19:37:29.541Z,10.03
2022-12-11T19:40:32.664Z,9.80
2022-12-11T19:43:38.111Z,8.53
2022-12-11T19:46:41.518Z,8.87
2022-12-11T19:49:44.921Z,9.07
2022-12-11T19:52:48.841Z,9.13
2022-12-11T19:55:54.670Z,8.17
2022-12-11T19:58:58.014Z,8.53
2022-12-11T20:02:01.255Z,8.43
2022-12-11T20:05:04.923Z,8.13
2022-12-11T20:08:42.294Z,9.20
2022-12-11T20:11:33.186Z,9.33
2022-12-11T20:14:37.232Z,8.43
2022-12-11T20:17:44.512Z,9.17
2022-12-11T20:20:47.815Z,9.03
2022-12-11T20:23:52.219Z,8.03
2022-12-11T20:26:57.711Z,7.93
2022-12-11T20:30:00.689Z,8.57
2022-12-11T20:33:07.090Z,7.60
2022-12-11T20:36:14.277Z,7.37
2022-12-11T20:39:17.411Z,7.80
2022-12-11T20:42:20.848Z,8.13
2022-12-11T20:45:23.703Z,7.57
2022-12-11T20:48:26.859Z,9.00
2022-12-11T20:51:33.087Z,8.73
2022-12-11T20:54:35.487Z,8.53
2022-12-11T20:57:44.770Z,9.00
2022-12-11T21:00:48.817Z,8.90
2022-12-11T21:03:55.083Z,8.70
2022-12-11T21:06:58.586Z,9.83
2022-12-11T21:10:00.762Z,8.67
2022-12-11T21:13:03.191Z,9.27
2022-12-11T21:16:08.136Z,9.10
2022-12-11T21:19:16.649Z,9.03
2022-12-11T21:22:19.651Z,9.07
2022-12-11T21:25:21.806Z,9.40
2022-12-11T21:28:24.101Z,9.13
2022-12-11T21:31:27.479Z,8.10
2022-12-11T21:34:29.878Z,8.83
2022-12-11T21:37:32.369Z,9.53
2022-12-11T21:40:34.825Z,9.30
2022-12-11T21:43:42.754Z,9.13
2022-12-11T21:46:59.628Z,8.60
2022-12-11T21:50:01.715Z,8.30
2022-12-11T21:53:04.014Z,8.87
2022-12-11T21:56:07.958Z,9.10
2022-12-11T21:59:10.391Z,7.90
2022-12-11T22:02:12.443Z,8.20
2022-12-11T22:05:14.685Z,9.07
2022-12-11T22:08:17.170Z,8.33
2022-12-11T22:11:21.373Z,8.53
2022-12-11T22:14:23.428Z,8.97
2022-12-11T22:17:25.400Z,9.73
2022-12-11T22:20:27.440Z,8.50
2022-12-11T22:23:29.497Z,8.50
2022-12-11T22:26:31.495Z,9.93
2022-12-11T22:29:33.580Z,8.87
2022-12-11T22:32:35.624Z,9.57
2022-12-11T22:35:38.157Z,9.23
2022-12-11T22:38:40.294Z,9.57
2022-12-11T22:41:42.727Z,9.47
2022-12-11T22:44:44.686Z,8.97
2022-12-11T22:47:46.760Z,9.20
2022-12-11T22:50:48.741Z,8.93
2022-12-11T22:53:51.326Z,7.83
2022-12-11T22:56:53.358Z,7.90
2022-12-11T22:59:57.104Z,9.07
2022-12-11T23:02:59.193Z,8.57
2022-12-11T23:06:05.409Z,8.83
2022-12-11T23:09:07.721Z,9.30
2022-12-11T23:12:09.773Z,8.20
2022-12-11T23:15:12.399Z,9.00
2022-12-11T23:18:14.864Z,8.40
2022-12-11T23:21:17.141Z,8.20
2022-12-11T23:24:19.229Z,8.30
2022-12-11T23:27:21.472Z,8.83
2022-12-11T23:30:24.149Z,8.57
2022-12-11T23:33:26.178Z,7.93
2022-12-11T23:36:29.296Z,8.13
2022-12-11T23:39:31.304Z,7.23
2022-12-11T23:42:33.850Z,8.37
2022-12-11T23:45:35.881Z,8.13
2022-12-11T23:48:37.987Z,7.50
2022-12-11T23:51:40.252Z,6.87
2022-12-11T23:54:42.297Z,7.07
2022-12-11T23:57:44.270Z,6.60
